Belvaux, Luxembourg
Current Conditions -  °F | °C
As of 6:20 AM on Wednesday 26 Nov 2014 (Local Time) from ELLX Reporting Station
Haze Haze  
Wind Chill: 37°   Ceiling: 800
Heat Index: 41°   Visibility: 1.8mi
Dew Point: 39°   Wind: 6mph
Humidity: 93%   Direction: 70°ENE
Pressure: 29.94"   Gusts: NA
Location:  49.51°N, 5.93°E
Report Text: ELLX 260520Z 07005KT 020V110 3000 BR BKN008 05/04 Q1014 NOSIG
Loading
Personal Weather Stations






























Interactive Weather Map New forecast layout! Learn more

10-Day Weather Forecast

Advertisements
Track Severe Weather on mobile